sensor_id;sensor_type;location;lat;lon;timestamp;P1;durP1;ratioP1;P2;durP2;ratioP2
73980;SDS011;62348;51.412;5.436;2023-05-10T00:01:40;25.88;;;18.83;;
73980;SDS011;62348;51.412;5.436;2023-05-10T00:04:06;27.95;;;19.65;;
73980;SDS011;62348;51.412;5.436;2023-05-10T00:06:31;25.60;;;19.10;;
73980;SDS011;62348;51.412;5.436;2023-05-10T00:08:57;27.90;;;19.17;;
73980;SDS011;62348;51.412;5.436;2023-05-10T00:11:22;31.98;;;20.63;;
73980;SDS011;62348;51.412;5.436;2023-05-10T00:13:48;32.75;;;22.73;;
73980;SDS011;62348;51.412;5.436;2023-05-10T00:16:13;34.55;;;23.35;;
73980;SDS011;62348;51.412;5.436;2023-05-10T00:18:39;31.30;;;21.55;;
73980;SDS011;62348;51.412;5.436;2023-05-10T00:21:05;35.13;;;22.17;;
73980;SDS011;62348;51.412;5.436;2023-05-10T00:23:31;33.75;;;22.45;;
73980;SDS011;62348;51.412;5.436;2023-05-10T00:25:57;34.58;;;22.95;;
73980;SDS011;62348;51.412;5.436;2023-05-10T00:28:22;34.42;;;23.17;;
73980;SDS011;62348;51.412;5.436;2023-05-10T00:30:48;35.63;;;23.55;;
73980;SDS011;62348;51.412;5.436;2023-05-10T00:33:13;36.85;;;24.55;;
73980;SDS011;62348;51.412;5.436;2023-05-10T00:35:39;40.15;;;25.25;;
73980;SDS011;62348;51.412;5.436;2023-05-10T00:38:04;37.20;;;24.88;;
73980;SDS011;62348;51.412;5.436;2023-05-10T00:40:30;38.22;;;24.35;;
73980;SDS011;62348;51.412;5.436;2023-05-10T00:42:55;36.80;;;24.92;;
73980;SDS011;62348;51.412;5.436;2023-05-10T00:45:21;36.45;;;24.75;;
73980;SDS011;62348;51.412;5.436;2023-05-10T00:47:48;36.03;;;24.60;;
73980;SDS011;62348;51.412;5.436;2023-05-10T00:50:14;38.42;;;24.55;;
73980;SDS011;62348;51.412;5.436;2023-05-10T00:52:40;37.70;;;24.50;;
73980;SDS011;62348;51.412;5.436;2023-05-10T00:55:07;36.75;;;23.90;;
73980;SDS011;62348;51.412;5.436;2023-05-10T00:57:34;39.53;;;24.90;;
73980;SDS011;62348;51.412;5.436;2023-05-10T01:00:00;36.83;;;24.63;;
73980;SDS011;62348;51.412;5.436;2023-05-10T01:02:28;39.38;;;25.67;;
73980;SDS011;62348;51.412;5.436;2023-05-10T01:04:53;37.67;;;25.67;;
73980;SDS011;62348;51.412;5.436;2023-05-10T01:07:19;38.58;;;24.17;;
73980;SDS011;62348;51.412;5.436;2023-05-10T01:09:45;40.03;;;25.17;;
73980;SDS011;62348;51.412;5.436;2023-05-10T01:12:11;41.97;;;26.63;;
73980;SDS011;62348;51.412;5.436;2023-05-10T01:14:36;42.08;;;25.13;;
73980;SDS011;62348;51.412;5.436;2023-05-10T01:17:02;51.33;;;27.05;;
73980;SDS011;62348;51.412;5.436;2023-05-10T01:19:29;40.83;;;25.95;;
73980;SDS011;62348;51.412;5.436;2023-05-10T01:27:19;49.13;;;27.23;;
73980;SDS011;62348;51.412;5.436;2023-05-10T01:35:35;44.00;;;27.27;;
73980;SDS011;62348;51.412;5.436;2023-05-10T01:38:19;47.05;;;27.33;;
73980;SDS011;62348;51.412;5.436;2023-05-10T01:43:49;45.13;;;27.08;;
73980;SDS011;62348;51.412;5.436;2023-05-10T01:46:38;43.47;;;25.77;;
73980;SDS011;62348;51.412;5.436;2023-05-10T01:49:10;42.63;;;27.00;;
73980;SDS011;62348;51.412;5.436;2023-05-10T01:51:50;38.00;;;26.35;;
73980;SDS011;62348;51.412;5.436;2023-05-10T01:54:19;41.47;;;27.20;;
73980;SDS011;62348;51.412;5.436;2023-05-10T01:56:47;44.58;;;26.70;;
73980;SDS011;62348;51.412;5.436;2023-05-10T01:59:18;46.80;;;28.88;;
73980;SDS011;62348;51.412;5.436;2023-05-10T02:01:45;43.75;;;27.42;;
73980;SDS011;62348;51.412;5.436;2023-05-10T02:04:13;41.53;;;27.23;;
73980;SDS011;62348;51.412;5.436;2023-05-10T02:06:42;40.38;;;28.15;;
73980;SDS011;62348;51.412;5.436;2023-05-10T02:09:09;44.67;;;27.35;;
73980;SDS011;62348;51.412;5.436;2023-05-10T02:11:37;48.78;;;30.35;;
73980;SDS011;62348;51.412;5.436;2023-05-10T02:14:05;51.45;;;30.85;;
73980;SDS011;62348;51.412;5.436;2023-05-10T02:16:32;47.60;;;30.35;;
73980;SDS011;62348;51.412;5.436;2023-05-10T02:19:00;49.22;;;30.92;;
73980;SDS011;62348;51.412;5.436;2023-05-10T02:21:27;54.85;;;33.47;;
73980;SDS011;62348;51.412;5.436;2023-05-10T02:23:54;54.00;;;32.92;;
73980;SDS011;62348;51.412;5.436;2023-05-10T02:26:21;56.80;;;33.55;;
73980;SDS011;62348;51.412;5.436;2023-05-10T02:28:49;59.00;;;35.58;;
73980;SDS011;62348;51.412;5.436;2023-05-10T02:31:16;57.15;;;34.13;;
73980;SDS011;62348;51.412;5.436;2023-05-10T02:33:43;55.28;;;34.55;;
73980;SDS011;62348;51.412;5.436;2023-05-10T02:36:11;55.13;;;35.60;;
73980;SDS011;62348;51.412;5.436;2023-05-10T02:38:37;60.67;;;35.58;;
73980;SDS011;62348;51.412;5.436;2023-05-10T02:41:04;57.60;;;35.25;;
73980;SDS011;62348;51.412;5.436;2023-05-10T02:43:32;55.60;;;33.40;;
73980;SDS011;62348;51.412;5.436;2023-05-10T02:45:58;55.42;;;33.45;;
73980;SDS011;62348;51.412;5.436;2023-05-10T02:48:24;53.88;;;34.70;;
73980;SDS011;62348;51.412;5.436;2023-05-10T02:50:50;56.58;;;33.38;;
73980;SDS011;62348;51.412;5.436;2023-05-10T02:53:38;51.20;;;32.40;;
73980;SDS011;62348;51.412;5.436;2023-05-10T02:56:10;51.97;;;32.85;;
73980;SDS011;62348;51.412;5.436;2023-05-10T02:58:39;52.10;;;33.03;;
73980;SDS011;62348;51.412;5.436;2023-05-10T03:01:05;53.53;;;33.38;;
73980;SDS011;62348;51.412;5.436;2023-05-10T03:03:32;52.65;;;33.88;;
73980;SDS011;62348;51.412;5.436;2023-05-10T03:05:57;56.35;;;33.03;;
73980;SDS011;62348;51.412;5.436;2023-05-10T03:08:23;55.10;;;33.47;;
73980;SDS011;62348;51.412;5.436;2023-05-10T03:17:10;54.22;;;32.33;;
73980;SDS011;62348;51.412;5.436;2023-05-10T03:19:53;45.92;;;30.35;;
73980;SDS011;62348;51.412;5.436;2023-05-10T03:22:28;49.55;;;31.17;;
73980;SDS011;62348;51.412;5.436;2023-05-10T03:24:57;50.45;;;29.92;;
73980;SDS011;62348;51.412;5.436;2023-05-10T03:27:25;45.25;;;28.40;;
73980;SDS011;62348;51.412;5.436;2023-05-10T03:29:52;48.97;;;29.90;;
73980;SDS011;62348;51.412;5.436;2023-05-10T03:32:20;45.80;;;29.52;;
73980;SDS011;62348;51.412;5.436;2023-05-10T03:34:46;44.22;;;27.25;;
73980;SDS011;62348;51.412;5.436;2023-05-10T03:37:11;46.75;;;28.25;;
73980;SDS011;62348;51.412;5.436;2023-05-10T03:39:36;44.40;;;28.67;;
73980;SDS011;62348;51.412;5.436;2023-05-10T03:42:02;48.30;;;29.48;;
73980;SDS011;62348;51.412;5.436;2023-05-10T03:44:27;50.33;;;29.17;;
73980;SDS011;62348;51.412;5.436;2023-05-10T03:46:53;56.83;;;30.88;;
73980;SDS011;62348;51.412;5.436;2023-05-10T03:49:18;55.38;;;30.10;;
73980;SDS011;62348;51.412;5.436;2023-05-10T03:51:44;55.78;;;29.23;;
73980;SDS011;62348;51.412;5.436;2023-05-10T03:54:09;57.75;;;30.27;;
73980;SDS011;62348;51.412;5.436;2023-05-10T03:56:35;53.85;;;29.90;;
73980;SDS011;62348;51.412;5.436;2023-05-10T03:59:00;54.50;;;30.65;;
73980;SDS011;62348;51.412;5.436;2023-05-10T04:01:25;61.67;;;33.35;;
73980;SDS011;62348;51.412;5.436;2023-05-10T04:03:51;62.92;;;32.70;;
73980;SDS011;62348;51.412;5.436;2023-05-10T04:06:16;62.92;;;34.45;;
73980;SDS011;62348;51.412;5.436;2023-05-10T04:08:42;66.72;;;33.85;;
73980;SDS011;62348;51.412;5.436;2023-05-10T04:11:08;76.72;;;37.15;;
73980;SDS011;62348;51.412;5.436;2023-05-10T04:13:37;78.68;;;39.85;;
73980;SDS011;62348;51.412;5.436;2023-05-10T04:16:03;75.57;;;36.95;;
73980;SDS011;62348;51.412;5.436;2023-05-10T04:18:30;82.78;;;39.67;;
73980;SDS011;62348;51.412;5.436;2023-05-10T04:20:56;84.70;;;39.50;;
73980;SDS011;62348;51.412;5.436;2023-05-10T04:23:21;78.07;;;39.45;;
73980;SDS011;62348;51.412;5.436;2023-05-10T04:25:47;81.00;;;38.42;;
73980;SDS011;62348;51.412;5.436;2023-05-10T04:28:12;83.78;;;41.38;;
73980;SDS011;62348;51.412;5.436;2023-05-10T04:30:38;82.80;;;40.42;;
73980;SDS011;62348;51.412;5.436;2023-05-10T04:33:03;88.88;;;41.95;;
73980;SDS011;62348;51.412;5.436;2023-05-10T04:35:29;82.07;;;43.42;;
73980;SDS011;62348;51.412;5.436;2023-05-10T04:37:54;86.70;;;41.72;;
73980;SDS011;62348;51.412;5.436;2023-05-10T04:40:20;82.03;;;40.58;;
73980;SDS011;62348;51.412;5.436;2023-05-10T04:42:45;88.28;;;41.95;;
73980;SDS011;62348;51.412;5.436;2023-05-10T04:45:11;80.38;;;42.13;;
73980;SDS011;62348;51.412;5.436;2023-05-10T04:47:37;75.82;;;39.63;;
73980;SDS011;62348;51.412;5.436;2023-05-10T04:50:03;81.72;;;39.72;;
73980;SDS011;62348;51.412;5.436;2023-05-10T04:52:29;79.22;;;40.50;;
73980;SDS011;62348;51.412;5.436;2023-05-10T04:54:54;78.72;;;38.90;;
73980;SDS011;62348;51.412;5.436;2023-05-10T04:57:20;73.03;;;37.53;;
73980;SDS011;62348;51.412;5.436;2023-05-10T04:59:45;67.32;;;36.83;;
73980;SDS011;62348;51.412;5.436;2023-05-10T05:02:10;71.00;;;37.55;;
73980;SDS011;62348;51.412;5.436;2023-05-10T05:04:36;72.75;;;36.95;;
73980;SDS011;62348;51.412;5.436;2023-05-10T05:07:01;66.32;;;36.78;;
73980;SDS011;62348;51.412;5.436;2023-05-10T05:09:27;64.07;;;34.80;;
73980;SDS011;62348;51.412;5.436;2023-05-10T05:11:52;57.17;;;32.83;;
73980;SDS011;62348;51.412;5.436;2023-05-10T05:14:17;58.53;;;32.75;;
73980;SDS011;62348;51.412;5.436;2023-05-10T05:16:45;55.90;;;31.58;;
73980;SDS011;62348;51.412;5.436;2023-05-10T05:19:11;55.30;;;32.05;;
73980;SDS011;62348;51.412;5.436;2023-05-10T05:21:36;52.35;;;30.35;;
73980;SDS011;62348;51.412;5.436;2023-05-10T05:24:02;48.75;;;29.65;;
73980;SDS011;62348;51.412;5.436;2023-05-10T05:26:27;48.72;;;29.70;;
73980;SDS011;62348;51.412;5.436;2023-05-10T05:28:53;47.33;;;28.13;;
73980;SDS011;62348;51.412;5.436;2023-05-10T05:31:19;50.83;;;28.20;;
73980;SDS011;62348;51.412;5.436;2023-05-10T05:33:45;49.50;;;28.17;;
73980;SDS011;62348;51.412;5.436;2023-05-10T05:36:10;49.58;;;28.90;;
73980;SDS011;62348;51.412;5.436;2023-05-10T05:38:36;50.90;;;29.77;;
73980;SDS011;62348;51.412;5.436;2023-05-10T05:41:01;48.88;;;29.73;;
73980;SDS011;62348;51.412;5.436;2023-05-10T05:43:27;50.30;;;26.83;;
73980;SDS011;62348;51.412;5.436;2023-05-10T05:45:53;43.22;;;26.08;;
73980;SDS011;62348;51.412;5.436;2023-05-10T05:48:18;44.88;;;26.30;;
73980;SDS011;62348;51.412;5.436;2023-05-10T05:50:44;44.55;;;27.02;;
73980;SDS011;62348;51.412;5.436;2023-05-10T05:53:10;47.83;;;26.95;;
73980;SDS011;62348;51.412;5.436;2023-05-10T05:55:36;44.42;;;27.25;;
73980;SDS011;62348;51.412;5.436;2023-05-10T05:58:01;39.40;;;25.85;;
73980;SDS011;62348;51.412;5.436;2023-05-10T06:00:27;41.45;;;25.23;;
73980;SDS011;62348;51.412;5.436;2023-05-10T06:02:52;40.53;;;27.08;;
73980;SDS011;62348;51.412;5.436;2023-05-10T06:05:18;41.78;;;25.50;;
73980;SDS011;62348;51.412;5.436;2023-05-10T06:07:43;42.58;;;25.77;;
73980;SDS011;62348;51.412;5.436;2023-05-10T06:10:09;41.35;;;26.08;;
73980;SDS011;62348;51.412;5.436;2023-05-10T06:12:34;37.47;;;25.05;;
73980;SDS011;62348;51.412;5.436;2023-05-10T06:15:00;38.53;;;24.02;;
73980;SDS011;62348;51.412;5.436;2023-05-10T06:17:25;42.78;;;26.75;;
73980;SDS011;62348;51.412;5.436;2023-05-10T06:19:51;34.88;;;24.02;;
73980;SDS011;62348;51.412;5.436;2023-05-10T06:22:16;41.80;;;25.88;;
73980;SDS011;62348;51.412;5.436;2023-05-10T06:24:42;37.22;;;23.48;;
73980;SDS011;62348;51.412;5.436;2023-05-10T06:27:08;43.10;;;25.45;;
73980;SDS011;62348;51.412;5.436;2023-05-10T06:29:34;39.53;;;25.35;;
73980;SDS011;62348;51.412;5.436;2023-05-10T06:31:59;39.22;;;24.77;;
73980;SDS011;62348;51.412;5.436;2023-05-10T06:34:24;37.67;;;24.73;;
73980;SDS011;62348;51.412;5.436;2023-05-10T06:36:50;38.80;;;25.73;;
73980;SDS011;62348;51.412;5.436;2023-05-10T06:39:16;39.85;;;25.92;;
73980;SDS011;62348;51.412;5.436;2023-05-10T06:41:42;37.72;;;24.70;;
73980;SDS011;62348;51.412;5.436;2023-05-10T06:44:07;39.13;;;25.30;;
73980;SDS011;62348;51.412;5.436;2023-05-10T06:46:33;39.53;;;25.40;;
73980;SDS011;62348;51.412;5.436;2023-05-10T06:48:58;40.22;;;26.63;;
73980;SDS011;62348;51.412;5.436;2023-05-10T06:51:24;35.40;;;25.73;;
73980;SDS011;62348;51.412;5.436;2023-05-10T06:53:49;38.05;;;23.95;;
73980;SDS011;62348;51.412;5.436;2023-05-10T06:56:15;38.05;;;24.95;;
73980;SDS011;62348;51.412;5.436;2023-05-10T06:58:40;37.42;;;25.55;;
73980;SDS011;62348;51.412;5.436;2023-05-10T07:01:05;39.28;;;26.00;;
73980;SDS011;62348;51.412;5.436;2023-05-10T07:03:31;39.85;;;26.00;;
73980;SDS011;62348;51.412;5.436;2023-05-10T07:06:00;37.88;;;26.80;;
73980;SDS011;62348;51.412;5.436;2023-05-10T07:08:28;37.97;;;24.92;;
73980;SDS011;62348;51.412;5.436;2023-05-10T07:10:59;40.53;;;24.90;;
73980;SDS011;62348;51.412;5.436;2023-05-10T07:13:30;38.63;;;25.42;;
73980;SDS011;62348;51.412;5.436;2023-05-10T07:15:56;32.85;;;22.80;;
73980;SDS011;62348;51.412;5.436;2023-05-10T07:18:23;38.28;;;25.48;;
73980;SDS011;62348;51.412;5.436;2023-05-10T07:20:49;37.20;;;23.10;;
73980;SDS011;62348;51.412;5.436;2023-05-10T07:23:14;33.85;;;23.65;;
73980;SDS011;62348;51.412;5.436;2023-05-10T07:25:40;35.15;;;22.30;;
73980;SDS011;62348;51.412;5.436;2023-05-10T07:28:05;26.52;;;18.33;;
73980;SDS011;62348;51.412;5.436;2023-05-10T07:30:30;30.23;;;18.25;;
73980;SDS011;62348;51.412;5.436;2023-05-10T07:32:56;28.05;;;19.83;;
73980;SDS011;62348;51.412;5.436;2023-05-10T07:35:21;24.92;;;17.90;;
73980;SDS011;62348;51.412;5.436;2023-05-10T07:37:47;24.15;;;16.50;;
73980;SDS011;62348;51.412;5.436;2023-05-10T07:40:12;26.73;;;17.48;;
73980;SDS011;62348;51.412;5.436;2023-05-10T07:42:38;26.75;;;16.27;;
73980;SDS011;62348;51.412;5.436;2023-05-10T07:45:03;26.05;;;14.65;;
73980;SDS011;62348;51.412;5.436;2023-05-10T07:47:29;27.50;;;16.23;;
73980;SDS011;62348;51.412;5.436;2023-05-10T07:49:55;21.17;;;14.93;;
73980;SDS011;62348;51.412;5.436;2023-05-10T07:52:20;23.55;;;13.35;;
73980;SDS011;62348;51.412;5.436;2023-05-10T07:54:45;21.50;;;13.25;;
73980;SDS011;62348;51.412;5.436;2023-05-10T07:57:11;20.17;;;13.43;;
73980;SDS011;62348;51.412;5.436;2023-05-10T07:59:39;19.50;;;13.07;;
73980;SDS011;62348;51.412;5.436;2023-05-10T08:02:04;19.20;;;12.80;;
73980;SDS011;62348;51.412;5.436;2023-05-10T08:04:31;16.75;;;11.73;;
73980;SDS011;62348;51.412;5.436;2023-05-10T08:06:56;16.15;;;10.52;;
73980;SDS011;62348;51.412;5.436;2023-05-10T08:09:21;14.40;;;10.60;;
73980;SDS011;62348;51.412;5.436;2023-05-10T08:11:48;12.85;;;10.95;;
73980;SDS011;62348;51.412;5.436;2023-05-10T08:14:14;19.08;;;11.60;;
73980;SDS011;62348;51.412;5.436;2023-05-10T08:16:39;14.70;;;10.27;;
73980;SDS011;62348;51.412;5.436;2023-05-10T08:19:05;15.77;;;10.88;;
73980;SDS011;62348;51.412;5.436;2023-05-10T08:21:30;17.88;;;11.13;;
73980;SDS011;62348;51.412;5.436;2023-05-10T08:23:56;17.73;;;12.23;;
73980;SDS011;62348;51.412;5.436;2023-05-10T08:26:21;15.90;;;10.98;;
73980;SDS011;62348;51.412;5.436;2023-05-10T08:28:47;14.88;;;10.43;;
73980;SDS011;62348;51.412;5.436;2023-05-10T08:31:12;16.88;;;11.98;;
73980;SDS011;62348;51.412;5.436;2023-05-10T08:33:37;14.15;;;10.23;;
73980;SDS011;62348;51.412;5.436;2023-05-10T08:36:03;13.77;;;11.35;;
73980;SDS011;62348;51.412;5.436;2023-05-10T08:38:28;14.80;;;11.32;;
73980;SDS011;62348;51.412;5.436;2023-05-10T08:40:54;13.70;;;10.55;;
73980;SDS011;62348;51.412;5.436;2023-05-10T08:43:26;18.00;;;11.25;;
73980;SDS011;62348;51.412;5.436;2023-05-10T08:45:53;13.60;;;9.80;;
73980;SDS011;62348;51.412;5.436;2023-05-10T08:48:20;15.93;;;11.35;;
73980;SDS011;62348;51.412;5.436;2023-05-10T08:50:49;19.17;;;11.90;;
73980;SDS011;62348;51.412;5.436;2023-05-10T08:53:18;18.23;;;11.70;;
73980;SDS011;62348;51.412;5.436;2023-05-10T08:55:44;17.05;;;10.70;;
73980;SDS011;62348;51.412;5.436;2023-05-10T08:58:11;13.70;;;9.65;;
73980;SDS011;62348;51.412;5.436;2023-05-10T09:00:36;13.02;;;9.88;;
73980;SDS011;62348;51.412;5.436;2023-05-10T09:03:04;16.05;;;10.00;;
73980;SDS011;62348;51.412;5.436;2023-05-10T09:05:31;14.70;;;9.73;;
73980;SDS011;62348;51.412;5.436;2023-05-10T09:07:57;15.13;;;10.38;;
73980;SDS011;62348;51.412;5.436;2023-05-10T09:10:23;17.83;;;11.98;;
73980;SDS011;62348;51.412;5.436;2023-05-10T09:12:52;15.40;;;10.85;;
73980;SDS011;62348;51.412;5.436;2023-05-10T09:15:18;13.57;;;10.25;;
73980;SDS011;62348;51.412;5.436;2023-05-10T09:17:45;15.88;;;11.38;;
73980;SDS011;62348;51.412;5.436;2023-05-10T09:20:12;16.65;;;10.93;;
73980;SDS011;62348;51.412;5.436;2023-05-10T09:22:37;12.45;;;10.88;;
73980;SDS011;62348;51.412;5.436;2023-05-10T09:25:04;11.88;;;10.68;;
73980;SDS011;62348;51.412;5.436;2023-05-10T09:27:33;15.32;;;10.57;;
73980;SDS011;62348;51.412;5.436;2023-05-10T09:29:59;14.48;;;11.68;;
73980;SDS011;62348;51.412;5.436;2023-05-10T09:32:44;12.63;;;11.05;;
73980;SDS011;62348;51.412;5.436;2023-05-10T09:35:14;14.85;;;11.98;;
73980;SDS011;62348;51.412;5.436;2023-05-10T09:37:41;14.52;;;12.23;;
73980;SDS011;62348;51.412;5.436;2023-05-10T09:40:16;16.15;;;12.18;;
73980;SDS011;62348;51.412;5.436;2023-05-10T09:42:53;15.60;;;11.25;;
73980;SDS011;62348;51.412;5.436;2023-05-10T09:45:23;14.93;;;11.82;;
73980;SDS011;62348;51.412;5.436;2023-05-10T09:47:50;14.98;;;10.82;;
73980;SDS011;62348;51.412;5.436;2023-05-10T09:50:16;14.90;;;11.10;;
73980;SDS011;62348;51.412;5.436;2023-05-10T09:55:22;17.20;;;11.38;;
73980;SDS011;62348;51.412;5.436;2023-05-10T09:57:49;15.10;;;11.77;;
73980;SDS011;62348;51.412;5.436;2023-05-10T10:00:23;12.48;;;10.50;;
73980;SDS011;62348;51.412;5.436;2023-05-10T10:02:54;11.80;;;10.50;;
73980;SDS011;62348;51.412;5.436;2023-05-10T10:05:20;12.85;;;10.27;;
73980;SDS011;62348;51.412;5.436;2023-05-10T10:07:46;14.23;;;8.63;;
73980;SDS011;62348;51.412;5.436;2023-05-10T10:10:14;11.85;;;9.60;;
73980;SDS011;62348;51.412;5.436;2023-05-10T10:12:40;12.45;;;9.00;;
73980;SDS011;62348;51.412;5.436;2023-05-10T10:15:07;8.13;;;7.25;;
73980;SDS011;62348;51.412;5.436;2023-05-10T10:17:34;10.40;;;6.90;;
73980;SDS011;62348;51.412;5.436;2023-05-10T10:20:02;8.77;;;6.93;;
73980;SDS011;62348;51.412;5.436;2023-05-10T10:22:28;7.68;;;6.97;;
73980;SDS011;62348;51.412;5.436;2023-05-10T10:24:53;9.15;;;6.30;;
73980;SDS011;62348;51.412;5.436;2023-05-10T10:27:23;7.93;;;7.13;;
73980;SDS011;62348;51.412;5.436;2023-05-10T10:30:37;8.40;;;7.45;;
73980;SDS011;62348;51.412;5.436;2023-05-10T10:35:58;10.88;;;8.35;;
73980;SDS011;62348;51.412;5.436;2023-05-10T10:38:25;14.85;;;9.77;;
73980;SDS011;62348;51.412;5.436;2023-05-10T10:41:03;14.35;;;10.50;;
73980;SDS011;62348;51.412;5.436;2023-05-10T10:43:48;13.07;;;10.25;;
73980;SDS011;62348;51.412;5.436;2023-05-10T10:46:17;14.63;;;12.75;;
73980;SDS011;62348;51.412;5.436;2023-05-10T10:48:49;16.88;;;12.20;;
73980;SDS011;62348;51.412;5.436;2023-05-10T10:51:39;15.00;;;12.90;;
73980;SDS011;62348;51.412;5.436;2023-05-10T10:54:11;20.88;;;15.20;;
73980;SDS011;62348;51.412;5.436;2023-05-10T10:56:37;18.83;;;15.00;;
73980;SDS011;62348;51.412;5.436;2023-05-10T10:59:03;18.88;;;15.05;;
73980;SDS011;62348;51.412;5.436;2023-05-10T11:01:34;21.65;;;16.88;;
73980;SDS011;62348;51.412;5.436;2023-05-10T11:06:32;19.67;;;16.60;;
73980;SDS011;62348;51.412;5.436;2023-05-10T11:09:00;17.80;;;15.32;;
73980;SDS011;62348;51.412;5.436;2023-05-10T11:11:31;20.55;;;16.17;;
73980;SDS011;62348;51.412;5.436;2023-05-10T11:14:02;19.75;;;15.88;;
73980;SDS011;62348;51.412;5.436;2023-05-10T11:19:12;19.25;;;15.32;;
73980;SDS011;62348;51.412;5.436;2023-05-10T11:21:49;19.80;;;16.20;;
73980;SDS011;62348;51.412;5.436;2023-05-10T11:24:17;20.75;;;16.08;;
73980;SDS011;62348;51.412;5.436;2023-05-10T11:26:44;19.25;;;16.85;;
73980;SDS011;62348;51.412;5.436;2023-05-10T11:29:11;21.80;;;16.73;;
73980;SDS011;62348;51.412;5.436;2023-05-10T11:31:41;21.08;;;16.48;;
73980;SDS011;62348;51.412;5.436;2023-05-10T11:34:11;26.05;;;19.70;;
73980;SDS011;62348;51.412;5.436;2023-05-10T11:36:50;24.98;;;18.60;;
73980;SDS011;62348;51.412;5.436;2023-05-10T11:39:16;25.67;;;19.10;;
73980;SDS011;62348;51.412;5.436;2023-05-10T11:41:42;23.83;;;18.40;;
73980;SDS011;62348;51.412;5.436;2023-05-10T11:44:08;25.60;;;19.52;;
73980;SDS011;62348;51.412;5.436;2023-05-10T11:46:34;23.65;;;19.02;;
73980;SDS011;62348;51.412;5.436;2023-05-10T11:49:01;25.08;;;18.25;;
73980;SDS011;62348;51.412;5.436;2023-05-10T11:51:29;24.98;;;19.35;;
73980;SDS011;62348;51.412;5.436;2023-05-10T11:53:57;21.75;;;17.15;;
73980;SDS011;62348;51.412;5.436;2023-05-10T11:56:23;23.92;;;18.52;;
73980;SDS011;62348;51.412;5.436;2023-05-10T11:58:57;23.02;;;18.15;;
73980;SDS011;62348;51.412;5.436;2023-05-10T12:01:23;22.02;;;16.45;;
73980;SDS011;62348;51.412;5.436;2023-05-10T12:03:50;23.05;;;17.80;;
73980;SDS011;62348;51.412;5.436;2023-05-10T12:06:18;21.80;;;18.13;;
73980;SDS011;62348;51.412;5.436;2023-05-10T12:08:45;25.92;;;18.85;;
73980;SDS011;62348;51.412;5.436;2023-05-10T12:11:12;22.60;;;16.40;;
73980;SDS011;62348;51.412;5.436;2023-05-10T12:13:40;27.38;;;17.23;;
73980;SDS011;62348;51.412;5.436;2023-05-10T12:16:17;26.88;;;18.55;;
73980;SDS011;62348;51.412;5.436;2023-05-10T12:18:43;24.15;;;16.75;;
73980;SDS011;62348;51.412;5.436;2023-05-10T12:21:09;22.42;;;16.95;;
73980;SDS011;62348;51.412;5.436;2023-05-10T12:23:36;22.42;;;16.65;;
73980;SDS011;62348;51.412;5.436;2023-05-10T12:26:02;21.85;;;14.80;;
73980;SDS011;62348;51.412;5.436;2023-05-10T12:28:32;25.88;;;17.13;;
73980;SDS011;62348;51.412;5.436;2023-05-10T12:31:01;26.50;;;16.65;;
73980;SDS011;62348;51.412;5.436;2023-05-10T12:33:27;22.10;;;14.52;;
73980;SDS011;62348;51.412;5.436;2023-05-10T12:36:00;20.10;;;15.50;;
73980;SDS011;62348;51.412;5.436;2023-05-10T12:41:00;20.75;;;15.65;;
73980;SDS011;62348;51.412;5.436;2023-05-10T12:43:27;17.67;;;14.43;;
73980;SDS011;62348;51.412;5.436;2023-05-10T12:45:53;18.67;;;14.75;;
73980;SDS011;62348;51.412;5.436;2023-05-10T12:48:18;12.18;;;10.02;;
73980;SDS011;62348;51.412;5.436;2023-05-10T12:50:44;12.68;;;8.55;;
73980;SDS011;62348;51.412;5.436;2023-05-10T12:53:10;7.97;;;5.43;;
73980;SDS011;62348;51.412;5.436;2023-05-10T12:55:36;4.00;;;3.53;;
73980;SDS011;62348;51.412;5.436;2023-05-10T12:58:01;5.13;;;3.58;;
73980;SDS011;62348;51.412;5.436;2023-05-10T13:00:30;7.55;;;5.22;;
73980;SDS011;62348;51.412;5.436;2023-05-10T13:02:55;7.35;;;6.65;;
73980;SDS011;62348;51.412;5.436;2023-05-10T13:05:20;8.07;;;7.25;;
73980;SDS011;62348;51.412;5.436;2023-05-10T13:07:46;8.90;;;8.00;;
73980;SDS011;62348;51.412;5.436;2023-05-10T13:10:11;10.85;;;8.25;;
73980;SDS011;62348;51.412;5.436;2023-05-10T13:12:36;10.48;;;9.20;;
73980;SDS011;62348;51.412;5.436;2023-05-10T13:15:02;14.20;;;10.50;;
73980;SDS011;62348;51.412;5.436;2023-05-10T13:17:28;10.80;;;9.68;;
73980;SDS011;62348;51.412;5.436;2023-05-10T13:19:54;12.20;;;9.90;;
73980;SDS011;62348;51.412;5.436;2023-05-10T13:22:20;11.10;;;8.60;;
73980;SDS011;62348;51.412;5.436;2023-05-10T13:24:45;13.32;;;8.98;;
73980;SDS011;62348;51.412;5.436;2023-05-10T13:27:10;10.60;;;9.50;;
73980;SDS011;62348;51.412;5.436;2023-05-10T13:29:36;13.20;;;10.13;;
73980;SDS011;62348;51.412;5.436;2023-05-10T13:32:01;12.93;;;11.05;;
73980;SDS011;62348;51.412;5.436;2023-05-10T13:34:27;15.50;;;13.20;;
73980;SDS011;62348;51.412;5.436;2023-05-10T13:36:52;19.02;;;14.25;;
73980;SDS011;62348;51.412;5.436;2023-05-10T13:39:18;16.60;;;14.27;;
73980;SDS011;62348;51.412;5.436;2023-05-10T13:41:45;18.25;;;15.63;;
73980;SDS011;62348;51.412;5.436;2023-05-10T13:44:11;21.27;;;16.15;;
73980;SDS011;62348;51.412;5.436;2023-05-10T13:46:38;17.10;;;14.57;;
73980;SDS011;62348;51.412;5.436;2023-05-10T13:49:04;17.73;;;13.98;;
73980;SDS011;62348;51.412;5.436;2023-05-10T13:51:29;14.70;;;12.57;;
73980;SDS011;62348;51.412;5.436;2023-05-10T13:53:56;16.90;;;11.70;;
73980;SDS011;62348;51.412;5.436;2023-05-10T13:56:22;12.35;;;8.93;;
73980;SDS011;62348;51.412;5.436;2023-05-10T13:58:47;14.40;;;9.85;;
73980;SDS011;62348;51.412;5.436;2023-05-10T14:01:13;9.85;;;8.85;;
73980;SDS011;62348;51.412;5.436;2023-05-10T14:03:38;11.43;;;8.95;;
73980;SDS011;62348;51.412;5.436;2023-05-10T14:06:03;10.35;;;8.48;;
73980;SDS011;62348;51.412;5.436;2023-05-10T14:08:29;13.52;;;8.50;;
73980;SDS011;62348;51.412;5.436;2023-05-10T14:10:54;12.35;;;8.07;;
73980;SDS011;62348;51.412;5.436;2023-05-10T14:13:21;9.15;;;7.78;;
73980;SDS011;62348;51.412;5.436;2023-05-10T14:15:46;10.90;;;8.60;;
73980;SDS011;62348;51.412;5.436;2023-05-10T14:18:12;10.15;;;7.35;;
73980;SDS011;62348;51.412;5.436;2023-05-10T14:20:37;8.55;;;7.35;;
73980;SDS011;62348;51.412;5.436;2023-05-10T14:23:03;7.97;;;7.18;;
73980;SDS011;62348;51.412;5.436;2023-05-10T14:25:28;8.70;;;6.85;;
73980;SDS011;62348;51.412;5.436;2023-05-10T14:27:53;15.27;;;7.50;;
73980;SDS011;62348;51.412;5.436;2023-05-10T14:30:19;7.28;;;4.30;;
73980;SDS011;62348;51.412;5.436;2023-05-10T14:32:45;6.75;;;4.68;;
73980;SDS011;62348;51.412;5.436;2023-05-10T14:35:11;7.93;;;4.70;;
73980;SDS011;62348;51.412;5.436;2023-05-10T14:37:37;6.20;;;4.88;;
73980;SDS011;62348;51.412;5.436;2023-05-10T14:40:03;7.32;;;5.00;;
73980;SDS011;62348;51.412;5.436;2023-05-10T14:42:29;5.03;;;4.25;;
73980;SDS011;62348;51.412;5.436;2023-05-10T14:44:55;7.60;;;4.70;;
73980;SDS011;62348;51.412;5.436;2023-05-10T14:47:21;6.60;;;4.88;;
73980;SDS011;62348;51.412;5.436;2023-05-10T14:49:46;6.57;;;5.22;;
73980;SDS011;62348;51.412;5.436;2023-05-10T14:52:12;8.25;;;5.78;;
73980;SDS011;62348;51.412;5.436;2023-05-10T14:54:39;8.80;;;6.60;;
73980;SDS011;62348;51.412;5.436;2023-05-10T14:57:05;10.23;;;6.13;;
73980;SDS011;62348;51.412;5.436;2023-05-10T14:59:31;7.60;;;6.15;;